Flight Track Log - Related Links

Times and Time Zones

All times are in EDT time to prevent confusion due to time zone crossing. See the OPT332 flight status page for this flight to view local times or setup timezone preferences in your user account.

Time Position Orientation Groundspeed Altitude Reporting Facility
EDT Latitude Longitude Course Direction KTS MPH feet Rate Location/Type
Sun 06:53:19 PM 34.1500 -118.5667 338° Northwest 232 267 4,100  Level Southern California TRACON
Sun 06:55:38 PM 34.2856 -118.6333 338° Northwest 279 321 9,400 2,567 Climbing Los Angeles Center
Sun 06:56:40 PM 34.3653 -118.6453 353° North 288 331 12,700 2,064 Climbing Los Angeles Center
Sun 06:57:43 PM 34.4483 -118.6658 348° North 306 352 13,700 1,344 Climbing Los Angeles Center
Sun 06:58:45 PM 34.5200 -118.7078 334° Northwest 284 327 15,500 1,452 Climbing Los Angeles Center
Sun 06:59:47 PM 34.5967 -118.7481 337° Northwest 297 342 16,700 1,887 Climbing Los Angeles Center
Sun 07:00:49 PM 34.6881 -118.7994 335° Northwest 303 349 19,400 1,887 Climbing Los Angeles Center
Sun 07:01:51 PM 34.7664 -118.8417 336° Northwest 304 350 20,600 1,790 Climbing Los Angeles Center
Sun 07:02:53 PM 34.8425 -118.8928 331° Northwest 312 359 23,100 2,274 Climbing Los Angeles Center
Sun 07:03:55 PM 34.9242 -118.9617 325° Northwest 317 365 25,300 2,032 Climbing Los Angeles Center
Sun 07:04:57 PM 35.0014 -119.0239 327° Northwest 328 377 27,300 1,968 Climbing Los Angeles Center
Sun 07:06:00 PM 35.0808 -119.0881 327° Northwest 340 391 29,400 2,112 Climbing Los Angeles Center
Sun 07:07:02 PM 35.1589 -119.1522 326° Northwest 340 391 31,700 1,258 Climbing Los Angeles Center
Sun 07:08:04 PM 35.2400 -119.2217 325° Northwest 348 400 32,000 145 Climbing Los Angeles Center
Sun 07:09:06 PM 35.3322 -119.2956 327° Northwest 378 435 32,000  Level Los Angeles Center
Sun 07:10:08 PM 35.4467 -119.3914 326° Northwest 406 467 32,000  Level Los Angeles Center
Sun 07:11:10 PM 35.5375 -119.4739 324° Northwest 407 468 32,000  Level Los Angeles Center
Sun 07:12:12 PM 35.5753 -119.5894 292° West 368 423 32,000  Level Los Angeles Center
Sun 07:13:14 PM 35.5933 -119.7164 280° West 375 432 32,000  Level Los Angeles Center
Sun 07:14:16 PM 35.6108 -119.8428 280° West 376 433 32,000  Level Los Angeles Center
Sun 07:15:18 PM 35.6336 -119.9969 280° West 383 441 32,000  Level Los Angeles Center
Sun 07:16:21 PM 35.6519 -120.1242 280° West 384 442 32,000  Level Los Angeles Center
Sun 07:17:23 PM 35.6711 -120.2511 281° West 383 441 32,000  Level Los Angeles Center
Sun 07:18:25 PM 35.6950 -120.3733 284° West 378 435 32,000  Level Los Angeles Center
Sun 07:19:27 PM 35.7497 -120.5097 296° West 373 429 32,000  Level Los Angeles Center
Sun 07:20:29 PM 35.8194 -120.6067 312° West 376 433 32,000  Level Los Angeles Center
Sun 07:21:32 PM 35.8872 -120.7069 310° West 381 438 32,000  Level Los Angeles Center
Sun 07:27:26 PM 36.3045 -121.3110 310° West 392 451 32,000 -31 Level FlightAware ADS-B
Sun 07:27:57 PM 36.3420 -121.3660 310° West 395 455 31,800 -1,008 Descending FlightAware ADS-B
Sun 07:29:37 PM 36.4244 -121.4950 308° West 378 435 29,800 -1,818 Descending FlightAware ADS-B
Sun 07:30:09 PM 36.4649 -121.6070 294° West 367 422 27,800 -2,036 Descending FlightAware ADS-B
Sun 07:36:06 PM 36.8540 -122.0210 320° Northwest 397 457 16,600 -1,928 Descending FlightAware ADS-B
Sun 07:36:38 PM 36.9133 -122.0310 352° North 367 422 15,300 -2,156 Descending FlightAware ADS-B
Sun 07:37:10 PM 36.9646 -122.0400 352° North 335 386 14,300 -1,837 Descending FlightAware ADS-B
Sun 07:38:16 PM 37.0631 -122.0570 352° North 311 358 12,300 -1,794 Descending FlightAware ADS-B
Sun 07:38:47 PM 37.1061 -122.0650 352° North 302 348 11,400 -1,770 Descending FlightAware ADS-B
Sun 07:39:17 PM 37.1486 -122.0720 353° North 312 359 10,500 -678 Descending FlightAware ADS-B
Sun 07:40:42 PM 37.2145 -122.0870 350° North 311 358 10,100 -1,188 Descending FlightAware ADS-B
Sun 07:40:58 PM 37.2910 -122.1080 348° North 312 359 8,500 -4,065 Descending FlightAware ADS-B
Sun 07:41:13 PM 37.3132 -122.1140 348° North 312 359 8,000 -1,935 Descending FlightAware ADS-B
Sun 07:41:29 PM 37.3348 -122.1190 350° North 310 357 7,500 -1,571 Descending FlightAware ADS-B
Sun 07:42:37 PM 37.4231 -122.1430 348° North 269 310 5,800 -1,518 Descending FlightAware ADS-B
Sun 07:42:52 PM 37.4426 -122.1480 348° North 263 303 5,400 -1,615 Descending FlightAware ADS-B
Sun 07:43:03 PM 37.4558 -122.1510 350° North 260 299 5,100 -1,556 Descending FlightAware ADS-B
Sun 07:43:19 PM 37.4743 -122.1560 348° North 258 297 4,700 -1,548 Descending FlightAware ADS-B
Sun 07:43:34 PM 37.4917 -122.1600 350° North 238 274 4,300 -614 Descending FlightAware ADS-B
Sun 07:44:47 PM 37.5471 -122.1970 332° Northwest 190 219 3,800 -578 Descending FlightAware ADS-B
Sun 07:44:57 PM 37.5509 -122.2070 296° West 195 224 3,500 -1,909 Descending FlightAware ADS-B
Sun 07:45:09 PM 37.5553 -122.2190 295° West 198 228 3,100 -1,826 Descending FlightAware ADS-B
Sun 07:45:20 PM 37.5601 -122.2310 297° West 191 220 2,800 -1,778 Descending FlightAware ADS-B
Sun 07:45:36 PM 37.5666 -122.2460 299° West 180 207 2,300 -1,935 Descending FlightAware ADS-B
Sun 07:45:51 PM 37.5724 -122.2590 299° West 166 191 1,800 -889 Descending FlightAware ADS-B
Sun 07:46:57 PM 37.5901 -122.3010 298° West 100 115 1,100 -659 Descending FlightAware ADS-B
Sun 07:47:13 PM 37.5940 -122.3100 299° West 102 117 900 -529 Descending FlightAware ADS-B
Sun 07:47:31 PM 37.5979 -122.3200 296° West 104 120 800 -414 Descending FlightAware ADS-B
Sun 07:47:42 PM 37.6005 -122.3260 299° West 110 127 700 -444 Descending FlightAware ADS-B
Sun 07:47:58 PM 37.6044 -122.3350 299° West 108 124 600 -286 Descending FlightAware ADS-B
Sun 07:49:27 PM 37.6228 -122.3758 299° West 113 130 200 -270 Descending Oakland Center
Sun 07:51:00 PM 37.6167 -122.3667 North  Level FlightAware Approximate

Login

Don't have an account? Register now (free) for customized features, flight alerts, and more!